Parkman, WY (82838)

2:59 AM MST on December 09, 2016 (GMT -0700)
uptown | | Change Station

Elev 4327 ft 44.96 °N, 107.33 °W | Updated 15 seconds ago

Mostly Cloudy
Mostly Cloudy
2.5 °F
Feels Like 2 °F
N
0.0
Wind Variable Wind from SE
Gusts 0.0 mph

Today
High -- | Low -- °F
--% Chance of Precip.
Yesterday
High -- | Low -- °F
Precip. -- in
Pressure 30.47 in
Visibility 10.0 miles
Clouds Overcast 11000 ft
Windchill 2 °F
Dew Point -9 °F
Humidity 59%
Rainfall 0.00 in
Snow Depth Not available.
7:36 AM 4:27 PM
Waxing Gibbous, 72% visible
METAR KSHR 090953Z AUTO 32004KT 10SM OVC110 M16/M19 A3021 RMK AO2 SLP316 T11611194
Pressure 30.47 in
Visibility 10.0 miles
Clouds Overcast 11000 ft
Windchill 2 °F
Dew Point -9 °F
Humidity 59%
Rainfall 0.00 in
Snow Depth Not available.
7:36 AM 4:27 PM
Waxing Gibbous, 72% visible
METAR KSHR 090953Z AUTO 32004KT 10SM OVC110 M16/M19 A3021 RMK AO2 SLP316 T11611194

10-Day Weather Forecast

Almanac

Astronomy

Dec. 09, 2016 Rise Set
Actual Time
Civil Twilight
Nautical Twilight
Astronomical Twilight
Moon
Length of Visible Light
Length of Day
Tomorrow will be .
, % of the Moon is Illuminated

Today's Extremes

State Highs State Lows

Community

WunderPhotos

Upload Photos

1,956,378 photos uploaded!

WunderBlog® & News

Nearby

Air Quality

  Air Quality AQ Index Pollutant
Not available.

Snow Depth

Station Depth Elevation

Earthquake Activity

City Distance Mag. Time & Date
Minimum magnitude displayed is 2.5.

Coastal Water Temperatures

Place Temperature

Stations

Nearby Weather Stations

Station Location Temp. Windchill Dew Point Humidity Wind Precip. Elev Updated Type
                   

Watches & Warnings

There are currently no watches in effect.